sensor_id;sensor_type;location;lat;lon;timestamp;P1;durP1;ratioP1;P2;durP2;ratioP2
3689;SDS011;1861;50.240;8.596;2023-08-06T00:00:28;7.65;;;4.07;;
3689;SDS011;1861;50.240;8.596;2023-08-06T00:02:57;4.10;;;3.72;;
3689;SDS011;1861;50.240;8.596;2023-08-06T00:05:25;5.65;;;3.22;;
3689;SDS011;1861;50.240;8.596;2023-08-06T00:07:53;7.47;;;3.60;;
3689;SDS011;1861;50.240;8.596;2023-08-06T00:10:21;6.43;;;4.00;;
3689;SDS011;1861;50.240;8.596;2023-08-06T00:12:49;12.23;;;3.60;;
3689;SDS011;1861;50.240;8.596;2023-08-06T00:15:19;3.90;;;3.50;;
3689;SDS011;1861;50.240;8.596;2023-08-06T00:17:47;6.05;;;3.70;;
3689;SDS011;1861;50.240;8.596;2023-08-06T00:20:15;4.13;;;3.30;;
3689;SDS011;1861;50.240;8.596;2023-08-06T00:22:44;3.47;;;2.97;;
3689;SDS011;1861;50.240;8.596;2023-08-06T00:25:12;4.28;;;3.40;;
3689;SDS011;1861;50.240;8.596;2023-08-06T00:27:40;5.97;;;3.50;;
3689;SDS011;1861;50.240;8.596;2023-08-06T00:30:08;5.53;;;3.80;;
3689;SDS011;1861;50.240;8.596;2023-08-06T00:32:39;4.95;;;2.88;;
3689;SDS011;1861;50.240;8.596;2023-08-06T00:35:07;3.92;;;3.00;;
3689;SDS011;1861;50.240;8.596;2023-08-06T00:37:36;6.82;;;4.97;;
3689;SDS011;1861;50.240;8.596;2023-08-06T00:40:04;5.78;;;3.53;;
3689;SDS011;1861;50.240;8.596;2023-08-06T00:42:33;4.32;;;3.03;;
3689;SDS011;1861;50.240;8.596;2023-08-06T00:45:02;2.88;;;2.47;;
3689;SDS011;1861;50.240;8.596;2023-08-06T00:47:30;5.47;;;3.28;;
3689;SDS011;1861;50.240;8.596;2023-08-06T00:50:00;4.03;;;2.70;;
3689;SDS011;1861;50.240;8.596;2023-08-06T00:52:29;3.50;;;2.30;;
3689;SDS011;1861;50.240;8.596;2023-08-06T00:54:58;4.90;;;2.78;;
3689;SDS011;1861;50.240;8.596;2023-08-06T00:57:27;3.83;;;3.15;;
3689;SDS011;1861;50.240;8.596;2023-08-06T01:00:02;3.40;;;2.80;;
3689;SDS011;1861;50.240;8.596;2023-08-06T01:02:31;10.20;;;3.83;;
3689;SDS011;1861;50.240;8.596;2023-08-06T01:05:01;12.15;;;2.90;;
3689;SDS011;1861;50.240;8.596;2023-08-06T01:07:33;5.43;;;3.20;;
3689;SDS011;1861;50.240;8.596;2023-08-06T01:10:15;2.78;;;2.50;;
3689;SDS011;1861;50.240;8.596;2023-08-06T01:12:55;4.38;;;3.33;;
3689;SDS011;1861;50.240;8.596;2023-08-06T01:15:35;3.27;;;2.73;;
3689;SDS011;1861;50.240;8.596;2023-08-06T01:18:09;3.75;;;2.58;;
3689;SDS011;1861;50.240;8.596;2023-08-06T01:20:39;3.33;;;3.03;;
3689;SDS011;1861;50.240;8.596;2023-08-06T01:23:07;4.45;;;3.15;;
3689;SDS011;1861;50.240;8.596;2023-08-06T01:25:37;3.35;;;2.78;;
3689;SDS011;1861;50.240;8.596;2023-08-06T01:28:15;4.77;;;2.70;;
3689;SDS011;1861;50.240;8.596;2023-08-06T01:30:50;2.90;;;2.60;;
3689;SDS011;1861;50.240;8.596;2023-08-06T01:33:22;4.70;;;2.85;;
3689;SDS011;1861;50.240;8.596;2023-08-06T01:35:52;5.68;;;2.95;;
3689;SDS011;1861;50.240;8.596;2023-08-06T01:38:23;5.05;;;3.22;;
3689;SDS011;1861;50.240;8.596;2023-08-06T01:40:54;3.58;;;2.70;;
3689;SDS011;1861;50.240;8.596;2023-08-06T01:43:22;3.00;;;2.58;;
3689;SDS011;1861;50.240;8.596;2023-08-06T01:45:50;3.00;;;2.70;;
3689;SDS011;1861;50.240;8.596;2023-08-06T01:48:18;9.55;;;3.30;;
3689;SDS011;1861;50.240;8.596;2023-08-06T01:50:46;3.33;;;2.95;;
3689;SDS011;1861;50.240;8.596;2023-08-06T01:53:16;7.00;;;2.55;;
3689;SDS011;1861;50.240;8.596;2023-08-06T01:55:47;4.15;;;2.83;;
3689;SDS011;1861;50.240;8.596;2023-08-06T01:58:16;7.55;;;2.88;;
3689;SDS011;1861;50.240;8.596;2023-08-06T02:00:44;5.60;;;2.88;;
3689;SDS011;1861;50.240;8.596;2023-08-06T02:03:12;4.88;;;2.92;;
3689;SDS011;1861;50.240;8.596;2023-08-06T02:05:40;2.88;;;2.50;;
3689;SDS011;1861;50.240;8.596;2023-08-06T02:08:08;6.10;;;3.22;;
3689;SDS011;1861;50.240;8.596;2023-08-06T02:10:38;4.53;;;2.92;;
3689;SDS011;1861;50.240;8.596;2023-08-06T02:13:06;15.43;;;3.07;;
3689;SDS011;1861;50.240;8.596;2023-08-06T02:15:34;5.38;;;3.00;;
3689;SDS011;1861;50.240;8.596;2023-08-06T02:18:03;5.68;;;3.20;;
3689;SDS011;1861;50.240;8.596;2023-08-06T02:20:32;3.83;;;2.95;;
3689;SDS011;1861;50.240;8.596;2023-08-06T02:23:01;5.53;;;3.00;;
3689;SDS011;1861;50.240;8.596;2023-08-06T02:25:29;4.63;;;3.17;;
3689;SDS011;1861;50.240;8.596;2023-08-06T02:28:00;3.83;;;2.85;;
3689;SDS011;1861;50.240;8.596;2023-08-06T02:30:28;4.05;;;3.38;;
3689;SDS011;1861;50.240;8.596;2023-08-06T02:32:58;7.18;;;3.10;;
3689;SDS011;1861;50.240;8.596;2023-08-06T02:35:26;6.05;;;3.75;;
3689;SDS011;1861;50.240;8.596;2023-08-06T02:37:54;5.38;;;3.78;;
3689;SDS011;1861;50.240;8.596;2023-08-06T02:40:22;5.03;;;3.33;;
3689;SDS011;1861;50.240;8.596;2023-08-06T02:42:51;3.08;;;2.78;;
3689;SDS011;1861;50.240;8.596;2023-08-06T02:45:20;3.67;;;2.95;;
3689;SDS011;1861;50.240;8.596;2023-08-06T02:47:49;4.83;;;3.20;;
3689;SDS011;1861;50.240;8.596;2023-08-06T02:50:18;3.17;;;2.50;;
3689;SDS011;1861;50.240;8.596;2023-08-06T02:52:46;4.47;;;3.00;;
3689;SDS011;1861;50.240;8.596;2023-08-06T02:55:14;6.10;;;3.63;;
3689;SDS011;1861;50.240;8.596;2023-08-06T02:57:45;4.72;;;3.13;;
3689;SDS011;1861;50.240;8.596;2023-08-06T03:00:13;6.30;;;2.83;;
3689;SDS011;1861;50.240;8.596;2023-08-06T03:02:43;3.20;;;2.50;;
3689;SDS011;1861;50.240;8.596;2023-08-06T03:05:37;3.58;;;2.70;;
3689;SDS011;1861;50.240;8.596;2023-08-06T03:08:05;3.45;;;3.03;;
3689;SDS011;1861;50.240;8.596;2023-08-06T03:10:35;3.75;;;2.40;;
3689;SDS011;1861;50.240;8.596;2023-08-06T03:13:04;4.82;;;2.58;;
3689;SDS011;1861;50.240;8.596;2023-08-06T03:15:33;4.43;;;2.67;;
3689;SDS011;1861;50.240;8.596;2023-08-06T03:18:03;4.57;;;2.78;;
3689;SDS011;1861;50.240;8.596;2023-08-06T03:20:32;3.38;;;2.63;;
3689;SDS011;1861;50.240;8.596;2023-08-06T03:23:00;4.25;;;2.88;;
3689;SDS011;1861;50.240;8.596;2023-08-06T03:25:30;3.95;;;2.67;;
3689;SDS011;1861;50.240;8.596;2023-08-06T03:27:58;3.35;;;2.20;;
3689;SDS011;1861;50.240;8.596;2023-08-06T03:30:26;3.70;;;2.75;;
3689;SDS011;1861;50.240;8.596;2023-08-06T03:32:54;3.78;;;2.70;;
3689;SDS011;1861;50.240;8.596;2023-08-06T03:35:25;4.00;;;2.85;;
3689;SDS011;1861;50.240;8.596;2023-08-06T03:37:53;4.10;;;2.65;;
3689;SDS011;1861;50.240;8.596;2023-08-06T03:40:21;4.60;;;3.55;;
3689;SDS011;1861;50.240;8.596;2023-08-06T03:42:49;3.50;;;2.58;;
3689;SDS011;1861;50.240;8.596;2023-08-06T03:45:17;4.53;;;3.00;;
3689;SDS011;1861;50.240;8.596;2023-08-06T03:47:46;4.97;;;2.67;;
3689;SDS011;1861;50.240;8.596;2023-08-06T03:50:15;4.18;;;3.10;;
3689;SDS011;1861;50.240;8.596;2023-08-06T03:52:44;5.30;;;2.80;;
3689;SDS011;1861;50.240;8.596;2023-08-06T03:55:12;3.35;;;2.50;;
3689;SDS011;1861;50.240;8.596;2023-08-06T03:57:41;4.90;;;2.65;;
3689;SDS011;1861;50.240;8.596;2023-08-06T04:00:10;6.43;;;3.10;;
3689;SDS011;1861;50.240;8.596;2023-08-06T04:02:41;3.00;;;2.70;;
3689;SDS011;1861;50.240;8.596;2023-08-06T04:05:12;3.90;;;2.90;;
3689;SDS011;1861;50.240;8.596;2023-08-06T04:07:40;3.70;;;2.78;;
3689;SDS011;1861;50.240;8.596;2023-08-06T04:10:10;8.90;;;2.92;;
3689;SDS011;1861;50.240;8.596;2023-08-06T04:12:38;3.65;;;2.63;;
3689;SDS011;1861;50.240;8.596;2023-08-06T04:15:07;4.30;;;2.37;;
3689;SDS011;1861;50.240;8.596;2023-08-06T04:17:35;4.55;;;2.35;;
3689;SDS011;1861;50.240;8.596;2023-08-06T04:20:04;3.70;;;2.20;;
3689;SDS011;1861;50.240;8.596;2023-08-06T04:22:33;6.60;;;2.58;;
3689;SDS011;1861;50.240;8.596;2023-08-06T04:25:01;6.68;;;2.00;;
3689;SDS011;1861;50.240;8.596;2023-08-06T04:27:31;7.75;;;2.08;;
3689;SDS011;1861;50.240;8.596;2023-08-06T04:29:59;6.93;;;2.45;;
3689;SDS011;1861;50.240;8.596;2023-08-06T04:32:28;4.85;;;2.20;;
3689;SDS011;1861;50.240;8.596;2023-08-06T04:34:57;1.92;;;1.80;;
3689;SDS011;1861;50.240;8.596;2023-08-06T04:37:26;3.40;;;2.38;;
3689;SDS011;1861;50.240;8.596;2023-08-06T04:39:54;3.33;;;2.20;;
3689;SDS011;1861;50.240;8.596;2023-08-06T04:42:22;5.60;;;2.10;;
3689;SDS011;1861;50.240;8.596;2023-08-06T04:44:53;2.97;;;1.80;;
3689;SDS011;1861;50.240;8.596;2023-08-06T04:47:21;2.30;;;1.83;;
3689;SDS011;1861;50.240;8.596;2023-08-06T04:49:49;2.55;;;1.73;;
3689;SDS011;1861;50.240;8.596;2023-08-06T04:52:17;2.95;;;2.03;;
3689;SDS011;1861;50.240;8.596;2023-08-06T04:54:45;2.47;;;1.58;;
3689;SDS011;1861;50.240;8.596;2023-08-06T04:57:13;2.58;;;1.85;;
3689;SDS011;1861;50.240;8.596;2023-08-06T04:59:41;3.92;;;2.92;;
3689;SDS011;1861;50.240;8.596;2023-08-06T05:02:11;4.13;;;1.90;;
3689;SDS011;1861;50.240;8.596;2023-08-06T05:04:39;1.80;;;1.70;;
3689;SDS011;1861;50.240;8.596;2023-08-06T05:07:07;3.70;;;1.83;;
3689;SDS011;1861;50.240;8.596;2023-08-06T05:09:35;2.60;;;1.77;;
3689;SDS011;1861;50.240;8.596;2023-08-06T05:12:04;3.90;;;1.75;;
3689;SDS011;1861;50.240;8.596;2023-08-06T05:14:33;3.88;;;1.80;;
3689;SDS011;1861;50.240;8.596;2023-08-06T05:17:01;9.93;;;1.90;;
3689;SDS011;1861;50.240;8.596;2023-08-06T05:19:32;6.20;;;1.70;;
3689;SDS011;1861;50.240;8.596;2023-08-06T05:22:00;1.40;;;1.30;;
3689;SDS011;1861;50.240;8.596;2023-08-06T05:24:28;1.85;;;1.38;;
3689;SDS011;1861;50.240;8.596;2023-08-06T05:26:56;1.23;;;1.10;;
3689;SDS011;1861;50.240;8.596;2023-08-06T05:29:25;1.65;;;1.20;;
3689;SDS011;1861;50.240;8.596;2023-08-06T05:31:53;1.58;;;1.15;;
3689;SDS011;1861;50.240;8.596;2023-08-06T05:34:22;1.35;;;1.23;;
3689;SDS011;1861;50.240;8.596;2023-08-06T05:36:51;3.35;;;1.10;;
3689;SDS011;1861;50.240;8.596;2023-08-06T05:39:20;1.23;;;0.85;;
3689;SDS011;1861;50.240;8.596;2023-08-06T05:41:48;4.13;;;0.80;;
3689;SDS011;1861;50.240;8.596;2023-08-06T05:44:17;1.57;;;0.83;;
3689;SDS011;1861;50.240;8.596;2023-08-06T05:46:45;2.28;;;0.98;;
3689;SDS011;1861;50.240;8.596;2023-08-06T05:49:13;1.93;;;0.90;;
3689;SDS011;1861;50.240;8.596;2023-08-06T05:51:41;0.70;;;0.70;;
3689;SDS011;1861;50.240;8.596;2023-08-06T05:54:11;1.43;;;1.00;;
3689;SDS011;1861;50.240;8.596;2023-08-06T05:56:39;9.25;;;1.13;;
3689;SDS011;1861;50.240;8.596;2023-08-06T05:59:07;2.28;;;0.95;;
3689;SDS011;1861;50.240;8.596;2023-08-06T06:01:35;1.40;;;0.70;;
3689;SDS011;1861;50.240;8.596;2023-08-06T06:04:03;4.65;;;0.90;;
3689;SDS011;1861;50.240;8.596;2023-08-06T06:06:31;2.15;;;0.63;;
3689;SDS011;1861;50.240;8.596;2023-08-06T06:08:59;1.88;;;0.95;;
3689;SDS011;1861;50.240;8.596;2023-08-06T06:11:29;2.17;;;1.20;;
3689;SDS011;1861;50.240;8.596;2023-08-06T06:13:57;1.10;;;0.90;;
3689;SDS011;1861;50.240;8.596;2023-08-06T06:16:25;3.72;;;1.02;;
3689;SDS011;1861;50.240;8.596;2023-08-06T06:18:53;2.45;;;0.90;;
3689;SDS011;1861;50.240;8.596;2023-08-06T06:21:23;3.67;;;1.17;;
3689;SDS011;1861;50.240;8.596;2023-08-06T06:23:51;1.35;;;1.10;;
3689;SDS011;1861;50.240;8.596;2023-08-06T06:26:19;2.27;;;0.80;;
3689;SDS011;1861;50.240;8.596;2023-08-06T06:28:49;4.82;;;1.02;;
3689;SDS011;1861;50.240;8.596;2023-08-06T06:31:17;1.95;;;0.70;;
3689;SDS011;1861;50.240;8.596;2023-08-06T06:33:45;1.02;;;0.75;;
3689;SDS011;1861;50.240;8.596;2023-08-06T06:36:13;3.45;;;1.33;;
3689;SDS011;1861;50.240;8.596;2023-08-06T06:38:41;1.27;;;0.70;;
3689;SDS011;1861;50.240;8.596;2023-08-06T06:41:10;1.27;;;0.70;;
3689;SDS011;1861;50.240;8.596;2023-08-06T06:43:38;1.67;;;0.50;;
3689;SDS011;1861;50.240;8.596;2023-08-06T06:46:08;1.45;;;0.80;;
3689;SDS011;1861;50.240;8.596;2023-08-06T06:48:36;2.50;;;0.70;;
3689;SDS011;1861;50.240;8.596;2023-08-06T06:51:04;0.70;;;0.70;;
3689;SDS011;1861;50.240;8.596;2023-08-06T06:53:32;1.55;;;0.70;;
3689;SDS011;1861;50.240;8.596;2023-08-06T06:56:04;1.35;;;0.65;;
3689;SDS011;1861;50.240;8.596;2023-08-06T06:58:32;1.65;;;0.90;;
3689;SDS011;1861;50.240;8.596;2023-08-06T07:01:00;5.88;;;2.15;;
3689;SDS011;1861;50.240;8.596;2023-08-06T07:03:30;1.00;;;0.73;;
3689;SDS011;1861;50.240;8.596;2023-08-06T07:05:58;2.03;;;0.75;;
3689;SDS011;1861;50.240;8.596;2023-08-06T07:08:26;0.70;;;0.60;;
3689;SDS011;1861;50.240;8.596;2023-08-06T07:10:59;1.00;;;0.70;;
3689;SDS011;1861;50.240;8.596;2023-08-06T07:13:29;0.60;;;0.50;;
3689;SDS011;1861;50.240;8.596;2023-08-06T07:15:57;0.90;;;0.60;;
3689;SDS011;1861;50.240;8.596;2023-08-06T07:18:25;0.75;;;0.60;;
3689;SDS011;1861;50.240;8.596;2023-08-06T07:20:55;1.02;;;0.55;;
3689;SDS011;1861;50.240;8.596;2023-08-06T07:23:24;0.70;;;0.50;;
3689;SDS011;1861;50.240;8.596;2023-08-06T07:25:53;0.90;;;0.50;;
3689;SDS011;1861;50.240;8.596;2023-08-06T07:28:21;0.70;;;0.57;;
3689;SDS011;1861;50.240;8.596;2023-08-06T07:30:49;1.77;;;0.50;;
3689;SDS011;1861;50.240;8.596;2023-08-06T07:33:18;0.60;;;0.47;;
3689;SDS011;1861;50.240;8.596;2023-08-06T07:35:46;0.73;;;0.50;;
3689;SDS011;1861;50.240;8.596;2023-08-06T07:38:15;1.98;;;0.90;;
3689;SDS011;1861;50.240;8.596;2023-08-06T07:40:44;0.60;;;0.45;;
3689;SDS011;1861;50.240;8.596;2023-08-06T07:43:12;0.60;;;0.50;;
3689;SDS011;1861;50.240;8.596;2023-08-06T07:45:40;0.60;;;0.50;;
3689;SDS011;1861;50.240;8.596;2023-08-06T07:48:09;0.80;;;0.43;;
3689;SDS011;1861;50.240;8.596;2023-08-06T07:50:37;0.60;;;0.47;;
3689;SDS011;1861;50.240;8.596;2023-08-06T07:53:05;0.60;;;0.47;;
3689;SDS011;1861;50.240;8.596;2023-08-06T07:55:34;0.80;;;0.43;;
3689;SDS011;1861;50.240;8.596;2023-08-06T07:58:02;0.60;;;0.43;;
3689;SDS011;1861;50.240;8.596;2023-08-06T08:00:30;0.70;;;0.68;;
3689;SDS011;1861;50.240;8.596;2023-08-06T08:02:59;1.38;;;0.90;;
3689;SDS011;1861;50.240;8.596;2023-08-06T08:05:28;0.70;;;0.60;;
3689;SDS011;1861;50.240;8.596;2023-08-06T08:07:56;0.70;;;0.60;;
3689;SDS011;1861;50.240;8.596;2023-08-06T08:10:24;1.50;;;0.77;;
3689;SDS011;1861;50.240;8.596;2023-08-06T08:12:53;0.55;;;0.40;;
3689;SDS011;1861;50.240;8.596;2023-08-06T08:15:21;0.75;;;0.63;;
3689;SDS011;1861;50.240;8.596;2023-08-06T08:17:50;0.60;;;0.50;;
3689;SDS011;1861;50.240;8.596;2023-08-06T08:20:18;0.95;;;0.70;;
3689;SDS011;1861;50.240;8.596;2023-08-06T08:22:46;1.33;;;1.10;;
3689;SDS011;1861;50.240;8.596;2023-08-06T08:25:15;1.85;;;1.20;;
3689;SDS011;1861;50.240;8.596;2023-08-06T08:27:43;5.63;;;1.40;;
3689;SDS011;1861;50.240;8.596;2023-08-06T08:30:13;0.60;;;0.50;;
3689;SDS011;1861;50.240;8.596;2023-08-06T08:32:41;0.93;;;0.82;;
3689;SDS011;1861;50.240;8.596;2023-08-06T08:35:09;1.92;;;1.58;;
3689;SDS011;1861;50.240;8.596;2023-08-06T08:37:39;1.87;;;0.70;;
3689;SDS011;1861;50.240;8.596;2023-08-06T08:40:07;0.60;;;0.52;;
3689;SDS011;1861;50.240;8.596;2023-08-06T08:42:36;0.60;;;0.50;;
3689;SDS011;1861;50.240;8.596;2023-08-06T08:45:06;1.23;;;0.60;;
3689;SDS011;1861;50.240;8.596;2023-08-06T08:47:41;0.80;;;0.60;;
3689;SDS011;1861;50.240;8.596;2023-08-06T08:50:10;1.35;;;0.70;;
3689;SDS011;1861;50.240;8.596;2023-08-06T08:52:38;2.20;;;1.48;;
3689;SDS011;1861;50.240;8.596;2023-08-06T08:55:08;0.90;;;0.80;;
3689;SDS011;1861;50.240;8.596;2023-08-06T08:57:36;3.55;;;1.58;;
3689;SDS011;1861;50.240;8.596;2023-08-06T09:00:04;0.90;;;0.80;;
3689;SDS011;1861;50.240;8.596;2023-08-06T09:02:35;0.70;;;0.70;;
3689;SDS011;1861;50.240;8.596;2023-08-06T09:05:05;16.77;;;3.55;;
3689;SDS011;1861;50.240;8.596;2023-08-06T09:07:35;0.90;;;0.80;;
3689;SDS011;1861;50.240;8.596;2023-08-06T09:10:10;1.17;;;0.55;;
3689;SDS011;1861;50.240;8.596;2023-08-06T09:12:40;0.70;;;0.70;;
3689;SDS011;1861;50.240;8.596;2023-08-06T09:15:09;0.70;;;0.70;;
3689;SDS011;1861;50.240;8.596;2023-08-06T09:17:39;1.40;;;0.60;;
3689;SDS011;1861;50.240;8.596;2023-08-06T09:20:10;0.70;;;0.60;;
3689;SDS011;1861;50.240;8.596;2023-08-06T09:22:39;0.60;;;0.52;;
3689;SDS011;1861;50.240;8.596;2023-08-06T09:25:08;0.70;;;0.70;;
3689;SDS011;1861;50.240;8.596;2023-08-06T09:27:37;0.63;;;0.57;;
3689;SDS011;1861;50.240;8.596;2023-08-06T09:30:06;1.88;;;0.60;;
3689;SDS011;1861;50.240;8.596;2023-08-06T09:32:46;0.80;;;0.80;;
3689;SDS011;1861;50.240;8.596;2023-08-06T09:35:15;2.08;;;0.70;;
3689;SDS011;1861;50.240;8.596;2023-08-06T09:37:44;1.95;;;0.63;;
3689;SDS011;1861;50.240;8.596;2023-08-06T09:40:24;0.80;;;0.70;;
3689;SDS011;1861;50.240;8.596;2023-08-06T09:42:53;0.73;;;0.60;;
3689;SDS011;1861;50.240;8.596;2023-08-06T09:45:21;0.88;;;0.77;;
3689;SDS011;1861;50.240;8.596;2023-08-06T09:47:52;0.68;;;0.57;;
3689;SDS011;1861;50.240;8.596;2023-08-06T09:50:23;1.50;;;0.60;;
3689;SDS011;1861;50.240;8.596;2023-08-06T09:52:56;0.80;;;0.60;;
3689;SDS011;1861;50.240;8.596;2023-08-06T09:55:25;1.40;;;1.10;;
3689;SDS011;1861;50.240;8.596;2023-08-06T09:57:54;1.10;;;1.00;;
3689;SDS011;1861;50.240;8.596;2023-08-06T10:00:22;0.80;;;0.63;;
3689;SDS011;1861;50.240;8.596;2023-08-06T10:02:52;0.73;;;0.60;;
3689;SDS011;1861;50.240;8.596;2023-08-06T10:05:22;0.68;;;0.50;;
3689;SDS011;1861;50.240;8.596;2023-08-06T10:07:51;0.90;;;0.63;;
3689;SDS011;1861;50.240;8.596;2023-08-06T10:10:22;0.65;;;0.60;;
3689;SDS011;1861;50.240;8.596;2023-08-06T10:12:52;3.70;;;0.70;;
3689;SDS011;1861;50.240;8.596;2023-08-06T10:15:24;0.60;;;0.50;;
3689;SDS011;1861;50.240;8.596;2023-08-06T10:17:56;0.60;;;0.50;;
3689;SDS011;1861;50.240;8.596;2023-08-06T10:20:25;0.60;;;0.50;;
3689;SDS011;1861;50.240;8.596;2023-08-06T10:23:00;0.60;;;0.50;;
3689;SDS011;1861;50.240;8.596;2023-08-06T10:25:32;0.63;;;0.52;;
3689;SDS011;1861;50.240;8.596;2023-08-06T10:28:06;0.60;;;0.55;;
3689;SDS011;1861;50.240;8.596;2023-08-06T10:30:43;0.70;;;0.60;;
3689;SDS011;1861;50.240;8.596;2023-08-06T10:33:14;0.60;;;0.50;;
3689;SDS011;1861;50.240;8.596;2023-08-06T10:35:44;0.80;;;0.70;;
3689;SDS011;1861;50.240;8.596;2023-08-06T10:38:17;1.17;;;0.50;;
3689;SDS011;1861;50.240;8.596;2023-08-06T10:40:48;1.20;;;0.73;;
3689;SDS011;1861;50.240;8.596;2023-08-06T10:43:30;0.70;;;0.57;;
3689;SDS011;1861;50.240;8.596;2023-08-06T10:46:00;0.70;;;0.50;;
3689;SDS011;1861;50.240;8.596;2023-08-06T10:48:33;0.63;;;0.52;;
3689;SDS011;1861;50.240;8.596;2023-08-06T10:51:03;0.80;;;0.55;;
3689;SDS011;1861;50.240;8.596;2023-08-06T10:53:36;0.60;;;0.50;;
3689;SDS011;1861;50.240;8.596;2023-08-06T10:56:12;0.80;;;0.55;;
3689;SDS011;1861;50.240;8.596;2023-08-06T10:58:41;0.50;;;0.40;;
3689;SDS011;1861;50.240;8.596;2023-08-06T11:01:10;0.55;;;0.43;;
3689;SDS011;1861;50.240;8.596;2023-08-06T11:03:41;0.60;;;0.50;;
3689;SDS011;1861;50.240;8.596;2023-08-06T11:06:10;0.60;;;0.40;;
3689;SDS011;1861;50.240;8.596;2023-08-06T11:08:40;0.50;;;0.45;;
3689;SDS011;1861;50.240;8.596;2023-08-06T11:11:16;2.15;;;0.50;;
3689;SDS011;1861;50.240;8.596;2023-08-06T11:13:45;0.60;;;0.50;;
3689;SDS011;1861;50.240;8.596;2023-08-06T11:16:14;0.60;;;0.40;;
3689;SDS011;1861;50.240;8.596;2023-08-06T11:18:45;1.25;;;0.50;;
3689;SDS011;1861;50.240;8.596;2023-08-06T11:21:14;0.68;;;0.57;;
3689;SDS011;1861;50.240;8.596;2023-08-06T11:23:47;0.80;;;0.70;;
3689;SDS011;1861;50.240;8.596;2023-08-06T11:26:18;0.70;;;0.55;;
3689;SDS011;1861;50.240;8.596;2023-08-06T11:28:48;1.77;;;0.68;;
3689;SDS011;1861;50.240;8.596;2023-08-06T11:31:20;0.60;;;0.50;;
3689;SDS011;1861;50.240;8.596;2023-08-06T11:33:51;0.70;;;0.50;;
3689;SDS011;1861;50.240;8.596;2023-08-06T11:36:28;1.00;;;0.50;;
3689;SDS011;1861;50.240;8.596;2023-08-06T11:38:57;0.70;;;0.60;;
3689;SDS011;1861;50.240;8.596;2023-08-06T11:41:27;0.70;;;0.63;;
3689;SDS011;1861;50.240;8.596;2023-08-06T11:43:55;1.75;;;1.38;;
3689;SDS011;1861;50.240;8.596;2023-08-06T11:46:23;0.60;;;0.60;;
3689;SDS011;1861;50.240;8.596;2023-08-06T11:48:54;0.80;;;0.50;;
3689;SDS011;1861;50.240;8.596;2023-08-06T11:51:23;0.60;;;0.50;;
3689;SDS011;1861;50.240;8.596;2023-08-06T11:53:54;5.03;;;0.70;;
3689;SDS011;1861;50.240;8.596;2023-08-06T11:56:23;0.80;;;0.50;;
3689;SDS011;1861;50.240;8.596;2023-08-06T11:58:53;1.40;;;0.50;;
3689;SDS011;1861;50.240;8.596;2023-08-06T12:01:22;0.80;;;0.60;;
3689;SDS011;1861;50.240;8.596;2023-08-06T12:03:51;0.60;;;0.40;;
3689;SDS011;1861;50.240;8.596;2023-08-06T12:06:20;1.85;;;0.50;;
3689;SDS011;1861;50.240;8.596;2023-08-06T12:08:49;0.95;;;0.60;;
3689;SDS011;1861;50.240;8.596;2023-08-06T12:11:17;0.80;;;0.50;;
3689;SDS011;1861;50.240;8.596;2023-08-06T12:13:50;0.80;;;0.40;;
3689;SDS011;1861;50.240;8.596;2023-08-06T12:16:18;0.63;;;0.40;;
3689;SDS011;1861;50.240;8.596;2023-08-06T12:18:48;0.80;;;0.50;;
3689;SDS011;1861;50.240;8.596;2023-08-06T12:21:16;0.50;;;0.50;;
3689;SDS011;1861;50.240;8.596;2023-08-06T12:23:46;2.53;;;1.08;;
3689;SDS011;1861;50.240;8.596;2023-08-06T12:26:14;1.25;;;0.40;;
3689;SDS011;1861;50.240;8.596;2023-08-06T12:28:42;0.70;;;0.60;;
3689;SDS011;1861;50.240;8.596;2023-08-06T12:31:10;0.98;;;0.40;;
3689;SDS011;1861;50.240;8.596;2023-08-06T12:33:38;0.60;;;0.50;;
3689;SDS011;1861;50.240;8.596;2023-08-06T12:36:06;1.92;;;0.43;;
3689;SDS011;1861;50.240;8.596;2023-08-06T12:38:34;0.60;;;0.40;;
3689;SDS011;1861;50.240;8.596;2023-08-06T12:41:04;0.60;;;0.50;;
3689;SDS011;1861;50.240;8.596;2023-08-06T12:43:32;0.60;;;0.40;;
3689;SDS011;1861;50.240;8.596;2023-08-06T12:46:00;0.65;;;0.57;;
3689;SDS011;1861;50.240;8.596;2023-08-06T12:48:28;0.60;;;0.50;;
3689;SDS011;1861;50.240;8.596;2023-08-06T12:50:56;0.60;;;0.50;;
3689;SDS011;1861;50.240;8.596;2023-08-06T12:53:24;0.90;;;0.40;;
3689;SDS011;1861;50.240;8.596;2023-08-06T12:55:53;0.50;;;0.40;;
3689;SDS011;1861;50.240;8.596;2023-08-06T12:58:22;0.50;;;0.40;;
3689;SDS011;1861;50.240;8.596;2023-08-06T13:00:50;0.50;;;0.40;;
3689;SDS011;1861;50.240;8.596;2023-08-06T13:03:18;0.98;;;0.47;;
3689;SDS011;1861;50.240;8.596;2023-08-06T13:05:47;0.60;;;0.40;;
3689;SDS011;1861;50.240;8.596;2023-08-06T13:08:15;0.60;;;0.43;;
3689;SDS011;1861;50.240;8.596;2023-08-06T13:10:43;0.60;;;0.47;;
3689;SDS011;1861;50.240;8.596;2023-08-06T13:13:11;0.60;;;0.40;;
3689;SDS011;1861;50.240;8.596;2023-08-06T13:15:40;0.70;;;0.40;;
3689;SDS011;1861;50.240;8.596;2023-08-06T13:18:09;0.50;;;0.40;;
3689;SDS011;1861;50.240;8.596;2023-08-06T13:20:37;0.70;;;0.50;;
3689;SDS011;1861;50.240;8.596;2023-08-06T13:23:07;0.60;;;0.50;;
3689;SDS011;1861;50.240;8.596;2023-08-06T13:25:36;0.80;;;0.50;;
3689;SDS011;1861;50.240;8.596;2023-08-06T13:28:05;1.42;;;0.60;;
3689;SDS011;1861;50.240;8.596;2023-08-06T13:30:33;0.60;;;0.40;;
3689;SDS011;1861;50.240;8.596;2023-08-06T13:33:09;0.50;;;0.40;;
3689;SDS011;1861;50.240;8.596;2023-08-06T13:35:38;0.60;;;0.50;;
3689;SDS011;1861;50.240;8.596;2023-08-06T13:38:06;3.90;;;0.40;;
3689;SDS011;1861;50.240;8.596;2023-08-06T13:40:34;0.50;;;0.40;;
3689;SDS011;1861;50.240;8.596;2023-08-06T13:43:03;0.60;;;0.50;;
3689;SDS011;1861;50.240;8.596;2023-08-06T13:45:31;1.05;;;0.50;;
3689;SDS011;1861;50.240;8.596;2023-08-06T13:48:01;0.60;;;0.40;;
3689;SDS011;1861;50.240;8.596;2023-08-06T13:50:31;0.60;;;0.50;;
3689;SDS011;1861;50.240;8.596;2023-08-06T13:53:00;0.60;;;0.50;;
3689;SDS011;1861;50.240;8.596;2023-08-06T13:55:28;1.70;;;0.68;;
3689;SDS011;1861;50.240;8.596;2023-08-06T13:57:56;1.83;;;0.50;;
3689;SDS011;1861;50.240;8.596;2023-08-06T14:00:24;0.70;;;0.57;;
3689;SDS011;1861;50.240;8.596;2023-08-06T14:02:53;0.60;;;0.60;;
3689;SDS011;1861;50.240;8.596;2023-08-06T14:05:21;0.70;;;0.50;;
3689;SDS011;1861;50.240;8.596;2023-08-06T14:07:50;0.70;;;0.50;;
3689;SDS011;1861;50.240;8.596;2023-08-06T14:10:18;0.60;;;0.40;;
3689;SDS011;1861;50.240;8.596;2023-08-06T14:12:46;0.73;;;0.65;;
3689;SDS011;1861;50.240;8.596;2023-08-06T14:15:34;0.60;;;0.43;;
3689;SDS011;1861;50.240;8.596;2023-08-06T14:18:02;0.80;;;0.47;;
3689;SDS011;1861;50.240;8.596;2023-08-06T14:20:31;0.77;;;0.65;;
3689;SDS011;1861;50.240;8.596;2023-08-06T14:23:00;0.85;;;0.50;;
3689;SDS011;1861;50.240;8.596;2023-08-06T14:25:28;0.80;;;0.50;;
3689;SDS011;1861;50.240;8.596;2023-08-06T14:27:56;0.60;;;0.50;;
3689;SDS011;1861;50.240;8.596;2023-08-06T14:30:25;0.70;;;0.50;;
3689;SDS011;1861;50.240;8.596;2023-08-06T14:32:53;0.98;;;0.57;;
3689;SDS011;1861;50.240;8.596;2023-08-06T14:35:21;0.60;;;0.40;;
3689;SDS011;1861;50.240;8.596;2023-08-06T14:37:49;1.80;;;0.50;;
3689;SDS011;1861;50.240;8.596;2023-08-06T14:40:18;0.50;;;0.40;;
3689;SDS011;1861;50.240;8.596;2023-08-06T14:42:47;0.60;;;0.50;;
3689;SDS011;1861;50.240;8.596;2023-08-06T14:45:15;0.63;;;0.45;;
3689;SDS011;1861;50.240;8.596;2023-08-06T14:47:43;0.70;;;0.50;;
3689;SDS011;1861;50.240;8.596;2023-08-06T14:50:11;0.63;;;0.50;;
3689;SDS011;1861;50.240;8.596;2023-08-06T14:52:39;0.52;;;0.45;;
3689;SDS011;1861;50.240;8.596;2023-08-06T14:55:07;0.60;;;0.50;;
3689;SDS011;1861;50.240;8.596;2023-08-06T14:57:37;0.60;;;0.50;;
3689;SDS011;1861;50.240;8.596;2023-08-06T15:00:06;0.55;;;0.40;;
3689;SDS011;1861;50.240;8.596;2023-08-06T15:02:37;1.20;;;0.50;;
3689;SDS011;1861;50.240;8.596;2023-08-06T15:05:05;0.52;;;0.40;;
3689;SDS011;1861;50.240;8.596;2023-08-06T15:07:33;0.50;;;0.40;;
3689;SDS011;1861;50.240;8.596;2023-08-06T15:10:04;0.55;;;0.40;;
3689;SDS011;1861;50.240;8.596;2023-08-06T15:12:54;3.60;;;0.55;;
3689;SDS011;1861;50.240;8.596;2023-08-06T15:15:22;0.60;;;0.50;;
3689;SDS011;1861;50.240;8.596;2023-08-06T15:17:51;0.70;;;0.50;;
3689;SDS011;1861;50.240;8.596;2023-08-06T15:20:20;1.85;;;0.50;;
3689;SDS011;1861;50.240;8.596;2023-08-06T15:22:49;1.13;;;0.52;;
3689;SDS011;1861;50.240;8.596;2023-08-06T15:25:18;0.50;;;0.45;;
3689;SDS011;1861;50.240;8.596;2023-08-06T15:27:46;0.70;;;0.57;;